Time;durP1;ratioP1;P1;durP2;ratioP2;P2;SDS_P1;SDS_P2;PMS_P1;PMS_P2;Temp;Humidity;BMP_temperature;BMP_pressure;BME280_temperature;BME280_humidity;BME280_pressure;Samples;Min_cycle;Max_cycle;Signal;HPM_P1;HPM_P2
2022/05/01 00:01:48;;;;;;;14.93;12.83;;;9.10;95.70;;;;;;4992410;28;20487;-76
2022/05/01 00:04:17;;;;;;;16.47;12.77;;;9.00;95.70;;;;;;5012854;28;20472;-76
2022/05/01 00:06:45;;;;;;;16.37;12.90;;;9.00;95.70;;;;;;5011132;28;20450;-76
2022/05/01 00:09:13;;;;;;;13.20;11.30;;;9.00;95.80;;;;;;5011048;28;20492;-76
2022/05/01 00:11:43;;;;;;;14.60;12.87;;;9.00;95.80;;;;;;5000148;28;20440;-77
2022/05/01 00:14:12;;;;;;;15.87;13.40;;;9.00;95.90;;;;;;5012962;28;20515;-76
2022/05/01 00:16:40;;;;;;;16.13;12.80;;;8.90;95.90;;;;;;5011074;28;20872;-76
2022/05/01 00:19:09;;;;;;;17.10;13.43;;;8.80;95.90;;;;;;5000969;28;20464;-76
2022/05/01 00:21:37;;;;;;;16.30;14.57;;;8.80;96.00;;;;;;5010050;28;20466;-76
2022/05/01 00:24:06;;;;;;;15.43;13.83;;;8.80;96.10;;;;;;4991472;28;20479;-76
2022/05/01 00:26:35;;;;;;;17.03;13.73;;;8.70;96.30;;;;;;4992715;28;20840;-76
2022/05/01 00:29:05;;;;;;;16.57;14.17;;;8.70;96.20;;;;;;4992642;28;20483;-76
2022/05/01 00:31:33;;;;;;;15.40;13.77;;;8.70;96.20;;;;;;4991338;28;20480;-76
2022/05/01 00:36:47;;;;;;;17.43;15.63;;;8.60;96.30;;;;;;4991279;28;20506;-76
2022/05/01 00:39:15;;;;;;;16.33;14.43;;;8.60;96.30;;;;;;4990978;28;20480;-76
2022/05/01 00:41:46;;;;;;;16.83;15.00;;;8.50;96.30;;;;;;4991058;28;20465;-76
2022/05/01 00:44:17;;;;;;;16.33;14.63;;;8.50;96.40;;;;;;4992898;28;20894;-76
2022/05/01 00:46:46;;;;;;;17.87;15.97;;;8.40;96.40;;;;;;4992584;28;20434;-76
2022/05/01 00:49:17;;;;;;;17.67;15.87;;;8.40;96.50;;;;;;4990231;28;20986;-76
2022/05/01 00:51:48;;;;;;;21.20;17.53;;;8.30;96.50;;;;;;5008052;28;20467;-76
2022/05/01 00:54:19;;;;;;;19.17;17.07;;;8.30;96.60;;;;;;5010502;28;20858;-76
2022/05/01 00:56:50;;;;;;;15.20;12.60;;;8.20;96.60;;;;;;5000656;28;20877;-76
2022/05/01 00:59:21;;;;;;;18.77;16.80;;;8.20;96.70;;;;;;4990727;28;20472;-76
2022/05/01 01:01:52;;;;;;;19.20;17.20;;;8.10;96.80;;;;;;4990803;28;20547;-76
2022/05/01 01:04:20;;;;;;;18.00;16.30;;;8.10;96.90;;;;;;4992436;28;20801;-76
2022/05/01 01:06:49;;;;;;;20.77;18.37;;;8.00;96.90;;;;;;4994156;28;20453;-76
2022/05/01 01:09:19;;;;;;;21.40;17.77;;;8.00;97.00;;;;;;4990630;28;21004;-76
2022/05/01 01:11:47;;;;;;;18.80;16.87;;;7.90;97.10;;;;;;5002455;28;20960;-76
2022/05/01 01:14:16;;;;;;;18.70;16.80;;;7.90;97.10;;;;;;5010219;28;20457;-76
2022/05/01 01:16:46;;;;;;;20.00;17.93;;;7.90;97.20;;;;;;5010041;28;20448;-76
2022/05/01 01:19:14;;;;;;;17.37;15.67;;;7.90;97.20;;;;;;5010082;28;20563;-76
2022/05/01 01:21:44;;;;;;;19.17;16.60;;;7.80;97.10;;;;;;5011645;28;20449;-76
2022/05/01 01:24:12;;;;;;;19.03;17.07;;;7.80;97.10;;;;;;5010111;28;20465;-76
2022/05/01 01:26:41;;;;;;;19.53;17.70;;;7.80;97.00;;;;;;4996380;28;20965;-76
2022/05/01 01:31:55;;;;;;;18.30;16.40;;;7.80;97.00;;;;;;5008698;28;20459;-76
2022/05/01 01:34:36;;;;;;;22.47;20.27;;;7.70;96.90;;;;;;5010181;28;20865;-77
2022/05/01 01:37:06;;;;;;;27.13;24.77;;;7.70;96.90;;;;;;5010032;28;20539;-76
2022/05/01 01:39:35;;;;;;;19.27;17.43;;;7.60;96.90;;;;;;5011376;28;20455;-76
2022/05/01 01:42:07;;;;;;;24.07;21.90;;;7.60;97.00;;;;;;5009838;28;20456;-76
2022/05/01 01:44:38;;;;;;;24.43;22.10;;;7.50;97.10;;;;;;5009782;28;20451;-76
2022/05/01 01:47:07;;;;;;;21.50;19.40;;;7.50;97.20;;;;;;4992660;28;20506;-77
2022/05/01 01:49:35;;;;;;;26.27;23.63;;;7.40;97.20;;;;;;4998531;28;20862;-77
2022/05/01 01:52:04;;;;;;;24.90;22.53;;;7.40;97.40;;;;;;5007031;28;20452;-76
2022/05/01 01:54:33;;;;;;;29.53;27.13;;;7.30;97.40;;;;;;5005533;28;20941;-77
2022/05/01 01:57:01;;;;;;;24.47;22.33;;;7.30;97.50;;;;;;5009691;28;20451;-76
2022/05/01 01:59:30;;;;;;;24.50;22.30;;;7.20;97.60;;;;;;5009793;28;20878;-76
2022/05/01 02:01:58;;;;;;;25.90;23.57;;;7.20;97.70;;;;;;5009607;28;20508;-76
2022/05/01 02:04:26;;;;;;;20.83;18.80;;;7.20;97.70;;;;;;5010722;28;20481;-76
2022/05/01 02:06:54;;;;;;;22.33;20.33;;;7.10;97.70;;;;;;5002987;28;20460;-76
2022/05/01 02:09:23;;;;;;;25.90;23.70;;;7.20;97.70;;;;;;4996802;28;20483;-76
2022/05/01 02:11:53;;;;;;;23.47;21.37;;;7.10;97.60;;;;;;5002234;28;20554;-76
2022/05/01 02:14:22;;;;;;;26.93;24.37;;;7.10;97.60;;;;;;5009497;28;20451;-76
2022/05/01 02:16:50;;;;;;;26.53;24.13;;;7.10;97.60;;;;;;5009384;28;20454;-76
2022/05/01 02:19:18;;;;;;;26.67;24.23;;;7.00;97.60;;;;;;5009183;28;20992;-76
2022/05/01 02:21:47;;;;;;;26.70;24.30;;;7.00;97.70;;;;;;5009270;28;20455;-75
2022/05/01 02:24:15;;;;;;;26.13;23.87;;;7.00;97.80;;;;;;5009280;28;20943;-76
2022/05/01 02:26:44;;;;;;;27.67;25.37;;;7.00;97.80;;;;;;5004697;28;20475;-75
2022/05/01 02:29:13;;;;;;;27.67;25.30;;;7.00;97.90;;;;;;4999210;28;20479;-76
2022/05/01 02:31:44;;;;;;;28.17;25.47;;;6.90;97.90;;;;;;5009094;28;20455;-76
2022/05/01 02:34:13;;;;;;;25.23;22.83;;;6.90;97.90;;;;;;5010285;28;20485;-76
2022/05/01 02:36:41;;;;;;;28.60;26.17;;;6.90;97.90;;;;;;5008265;28;20455;-77
2022/05/01 02:39:09;;;;;;;26.03;23.70;;;6.90;97.90;;;;;;4989504;28;20479;-75
2022/05/01 02:41:37;;;;;;;25.17;22.97;;;6.90;98.00;;;;;;4990781;28;20469;-76
2022/05/01 02:44:07;;;;;;;31.90;29.23;;;6.90;98.00;;;;;;4989516;28;20523;-75
2022/05/01 02:46:36;;;;;;;28.50;26.07;;;6.90;98.00;;;;;;5003603;28;20526;-76
2022/05/01 02:49:05;;;;;;;36.87;34.10;;;6.90;98.10;;;;;;5004420;28;20494;-76
2022/05/01 02:51:34;;;;;;;33.70;31.10;;;6.90;98.10;;;;;;5013623;28;20446;-75
2022/05/01 02:54:04;;;;;;;35.67;32.77;;;6.90;98.20;;;;;;4973215;28;20970;-75
2022/05/01 02:56:32;;;;;;;32.10;29.53;;;6.80;98.30;;;;;;5058414;28;20547;-75
2022/05/01 02:59:01;;;;;;;34.23;31.73;;;6.80;98.40;;;;;;4974372;28;20480;-76
2022/05/01 03:01:29;;;;;;;30.37;27.83;;;6.80;98.40;;;;;;4973210;28;20461;-75
2022/05/01 03:03:58;;;;;;;32.93;30.13;;;6.80;98.50;;;;;;4973206;28;20449;-76
2022/05/01 03:06:27;;;;;;;32.53;29.93;;;6.80;98.50;;;;;;5009148;28;20459;-76
2022/05/01 03:08:55;;;;;;;32.13;29.53;;;6.80;98.60;;;;;;5010486;28;20576;-76
2022/05/01 03:11:23;;;;;;;29.40;26.80;;;6.80;98.70;;;;;;5005342;28;20458;-75
2022/05/01 03:13:51;;;;;;;34.70;31.77;;;6.80;98.60;;;;;;4993711;28;20447;-76
2022/05/01 03:16:19;;;;;;;31.73;29.07;;;6.80;98.60;;;;;;4993544;28;20498;-76
2022/05/01 03:24:20;;;;;;;38.33;35.47;;;6.70;98.60;;;;;;4992492;28;20530;-75
2022/05/01 03:26:48;;;;;;;26.27;23.93;;;6.70;98.70;;;;;;4996442;28;20481;-76
2022/05/01 03:29:17;;;;;;;33.00;30.40;;;6.70;98.70;;;;;;5011701;28;20996;-76
2022/05/01 03:31:48;;;;;;;33.27;30.73;;;6.70;98.70;;;;;;5007175;28;20448;-76
2022/05/01 03:34:17;;;;;;;27.00;24.63;;;6.70;98.70;;;;;;4993400;28;20453;-76
2022/05/01 03:36:47;;;;;;;32.10;29.50;;;6.70;98.70;;;;;;4993755;28;20483;-76
2022/05/01 03:39:16;;;;;;;28.73;26.40;;;6.70;98.70;;;;;;4992147;28;20514;-75
2022/05/01 03:41:44;;;;;;;32.17;29.67;;;6.70;98.70;;;;;;4994819;28;20469;-75
2022/05/01 03:44:12;;;;;;;28.40;26.00;;;6.70;98.70;;;;;;5011636;28;20891;-75
2022/05/01 03:46:41;;;;;;;27.47;24.97;;;6.70;98.70;;;;;;5011550;28;20490;-75
2022/05/01 03:49:10;;;;;;;29.77;27.10;;;6.70;98.70;;;;;;5011441;28;20558;-75
2022/05/01 03:51:38;;;;;;;32.27;29.77;;;6.70;98.70;;;;;;5011407;28;20952;-75
2022/05/01 03:54:08;;;;;;;32.70;30.17;;;6.70;98.70;;;;;;4993191;28;20462;-76
2022/05/01 03:56:36;;;;;;;33.83;31.13;;;6.70;98.70;;;;;;4991030;28;20456;-75
2022/05/01 03:59:04;;;;;;;31.07;28.30;;;6.70;98.70;;;;;;5001126;28;21067;-75
2022/05/01 04:01:33;;;;;;;30.37;27.93;;;6.70;98.70;;;;;;5011185;28;20456;-75
2022/05/01 04:04:02;;;;;;;28.47;25.87;;;6.60;98.70;;;;;;5013073;28;20545;-75
2022/05/01 04:06:31;;;;;;;29.47;27.13;;;6.70;98.80;;;;;;5011758;28;20435;-75
2022/05/01 04:09:00;;;;;;;32.40;29.97;;;6.70;98.80;;;;;;5011141;28;21076;-76
2022/05/01 04:11:29;;;;;;;27.87;25.53;;;6.70;98.80;;;;;;5012350;28;20570;-75
2022/05/01 04:13:57;;;;;;;30.53;28.13;;;6.70;98.90;;;;;;4992121;28;20527;-76
2022/05/01 04:16:26;;;;;;;27.77;25.43;;;6.70;98.90;;;;;;4993163;28;20458;-75
2022/05/01 04:18:54;;;;;;;36.77;33.80;;;6.70;98.90;;;;;;4992653;28;20467;-75
2022/05/01 04:21:23;;;;;;;32.07;29.60;;;6.70;98.90;;;;;;4991507;28;20453;-76
2022/05/01 04:23:52;;;;;;;33.10;30.40;;;6.80;99.00;;;;;;4992997;28;20441;-77
2022/05/01 04:26:20;;;;;;;31.93;29.27;;;6.80;99.10;;;;;;4991350;28;20452;-76
2022/05/01 04:31:32;;;;;;;28.67;26.23;;;6.80;99.20;;;;;;5003058;28;20514;-76
2022/05/01 04:34:00;;;;;;;33.33;30.53;;;6.80;99.20;;;;;;4992904;28;20521;-76
2022/05/01 04:36:29;;;;;;;33.23;30.53;;;6.80;99.30;;;;;;5005797;28;20456;-76
2022/05/01 04:38:57;;;;;;;30.53;28.03;;;6.90;99.40;;;;;;5011213;28;20470;-75
2022/05/01 04:41:25;;;;;;;26.90;24.53;;;6.90;99.40;;;;;;5010717;28;20523;-75
2022/05/01 04:43:55;;;;;;;40.77;37.93;;;6.90;99.50;;;;;;5010753;28;20452;-75
2022/05/01 04:46:23;;;;;;;35.27;32.57;;;6.90;99.50;;;;;;5012230;28;20471;-76
2022/05/01 04:48:51;;;;;;;29.70;27.10;;;6.90;99.50;;;;;;5010578;28;20476;-76
2022/05/01 04:51:19;;;;;;;28.67;26.00;;;6.90;99.60;;;;;;5007545;28;20656;-76
2022/05/01 04:53:48;;;;;;;27.00;24.50;;;7.00;99.70;;;;;;5010601;28;20538;-76
2022/05/01 04:59:02;;;;;;;46.00;42.77;;;7.00;99.80;;;;;;4990931;28;20479;-76
2022/05/01 05:01:32;;;;;;;28.37;25.80;;;7.00;99.80;;;;;;5009862;28;20545;-76
2022/05/01 05:04:01;;;;;;;29.27;26.53;;;7.00;99.90;;;;;;5010679;28;20469;-76
2022/05/01 05:06:29;;;;;;;27.57;25.13;;;7.00;99.90;;;;;;5010313;28;20462;-76
2022/05/01 05:11:43;;;;;;;39.33;36.33;;;7.10;99.90;;;;;;4990629;28;21017;-76
2022/05/01 05:14:13;;;;;;;23.10;20.90;;;7.10;99.90;;;;;;4990584;28;20538;-76
2022/05/01 05:16:41;;;;;;;27.57;25.13;;;7.20;99.90;;;;;;4990947;28;20881;-76
2022/05/01 05:19:10;;;;;;;24.97;22.37;;;7.20;99.90;;;;;;4995467;28;20475;-76
2022/05/01 05:21:38;;;;;;;24.70;22.20;;;7.20;99.90;;;;;;4999104;28;20452;-76
2022/05/01 05:24:06;;;;;;;25.57;23.07;;;7.30;99.90;;;;;;4990546;28;20459;-76
2022/05/01 05:26:34;;;;;;;24.10;21.80;;;7.30;99.90;;;;;;4990528;28;20464;-76
2022/05/01 05:29:03;;;;;;;24.10;21.73;;;7.40;99.90;;;;;;4990441;28;20476;-76
2022/05/01 05:31:33;;;;;;;25.77;23.53;;;7.40;99.90;;;;;;4990298;28;20479;-76
2022/05/01 05:34:01;;;;;;;26.03;23.30;;;7.40;99.90;;;;;;4990404;28;20553;-76
2022/05/01 05:36:29;;;;;;;24.03;21.80;;;7.50;99.90;;;;;;4990399;28;21002;-76
2022/05/01 05:38:59;;;;;;;24.27;21.67;;;7.50;99.90;;;;;;4989546;28;20511;-76
2022/05/01 05:41:27;;;;;;;25.83;23.30;;;7.50;99.90;;;;;;4992123;28;20436;-76
2022/05/01 05:43:55;;;;;;;24.60;22.23;;;7.60;99.90;;;;;;4991472;28;21003;-76
2022/05/01 05:46:28;;;;;;;23.50;21.30;;;7.60;99.90;;;;;;4991454;28;20440;-76
2022/05/01 05:48:58;;;;;;;24.47;21.97;;;7.60;99.90;;;;;;4991982;28;20484;-76
2022/05/01 05:51:26;;;;;;;24.83;22.30;;;7.60;99.90;;;;;;5008899;28;20479;-76
2022/05/01 05:53:55;;;;;;;26.43;23.83;;;7.60;99.90;;;;;;5009697;28;20539;-76
2022/05/01 05:56:24;;;;;;;24.73;22.37;;;7.70;99.90;;;;;;5011039;28;20993;-76
2022/05/01 05:58:53;;;;;;;23.97;21.47;;;7.70;99.90;;;;;;5009579;28;20555;-76
2022/05/01 06:01:24;;;;;;;24.57;22.27;;;7.70;99.90;;;;;;4997725;28;20451;-77
2022/05/01 06:03:52;;;;;;;23.23;20.90;;;7.70;99.90;;;;;;4991434;28;20964;-76
2022/05/01 06:06:22;;;;;;;23.10;20.90;;;7.80;99.90;;;;;;5008236;28;20454;-77
2022/05/01 06:08:50;;;;;;;23.23;20.93;;;7.80;99.90;;;;;;5007512;28;20516;-76
2022/05/01 06:11:18;;;;;;;21.70;19.60;;;7.80;99.90;;;;;;5009551;28;20471;-76
2022/05/01 06:13:46;;;;;;;24.00;21.60;;;7.80;99.90;;;;;;5005482;28;20843;-76
2022/05/01 06:16:14;;;;;;;23.33;20.97;;;7.90;99.90;;;;;;4989906;28;20540;-77
2022/05/01 06:18:43;;;;;;;22.37;20.20;;;7.90;99.90;;;;;;4989739;28;20510;-76
2022/05/01 06:21:11;;;;;;;22.60;20.37;;;7.90;99.90;;;;;;4991352;28;20869;-77
2022/05/01 06:23:41;;;;;;;23.27;20.93;;;8.00;99.90;;;;;;5004983;28;20468;-76
2022/05/01 06:26:10;;;;;;;24.13;21.20;;;8.00;99.90;;;;;;4993517;28;20456;-75
2022/05/01 06:28:38;;;;;;;23.03;20.73;;;8.00;99.90;;;;;;4993175;28;20563;-75
2022/05/01 06:31:07;;;;;;;22.70;20.50;;;8.10;99.90;;;;;;4993000;28;20468;-76
2022/05/01 06:33:39;;;;;;;22.57;20.27;;;8.20;99.90;;;;;;4993117;28;20554;-76
2022/05/01 06:36:09;;;;;;;21.27;19.20;;;8.20;99.90;;;;;;5009886;28;20902;-76
2022/05/01 06:38:37;;;;;;;20.40;18.40;;;8.20;99.90;;;;;;5012593;28;20820;-76
2022/05/01 06:41:07;;;;;;;20.60;18.50;;;8.30;99.90;;;;;;5012552;28;20455;-76
2022/05/01 06:43:35;;;;;;;20.57;18.37;;;8.40;99.90;;;;;;5012676;28;20448;-76
2022/05/01 06:46:04;;;;;;;20.97;18.87;;;8.40;99.90;;;;;;4995333;28;20498;-76
2022/05/01 06:48:32;;;;;;;20.77;18.80;;;8.50;99.90;;;;;;4994236;28;20478;-76
2022/05/01 06:51:01;;;;;;;20.83;18.73;;;8.50;99.90;;;;;;5011530;28;20468;-76
2022/05/01 06:53:29;;;;;;;23.00;20.57;;;8.60;99.90;;;;;;5001078;28;20813;-76
2022/05/01 06:55:57;;;;;;;21.23;17.83;;;8.60;99.90;;;;;;4997282;28;20456;-76
2022/05/01 06:58:27;;;;;;;20.00;15.73;;;8.70;99.90;;;;;;4992616;28;20484;-76
2022/05/01 07:00:55;;;;;;;22.10;16.30;;;8.80;99.90;;;;;;4992770;28;20456;-76
2022/05/01 07:03:24;;;;;;;18.03;16.13;;;8.80;99.90;;;;;;5004931;28;20529;-76
2022/05/01 07:05:52;;;;;;;17.20;15.23;;;8.80;99.90;;;;;;5008643;28;20451;-76
2022/05/01 07:08:20;;;;;;;17.30;15.43;;;8.90;99.90;;;;;;5010960;28;20455;-76
2022/05/01 07:10:48;;;;;;;17.10;15.20;;;8.90;99.90;;;;;;5000404;28;20857;-76
2022/05/01 07:13:19;;;;;;;18.20;16.30;;;9.00;99.90;;;;;;4992617;28;20452;-76
2022/05/01 07:15:50;;;;;;;18.47;15.40;;;9.00;99.90;;;;;;4994069;28;20543;-76
2022/05/01 07:18:18;;;;;;;16.17;14.03;;;9.00;99.90;;;;;;4994052;28;20444;-76
2022/05/01 07:20:47;;;;;;;16.67;14.13;;;9.10;99.90;;;;;;4992526;28;20444;-76
2022/05/01 07:23:15;;;;;;;15.00;13.27;;;9.10;99.90;;;;;;4992421;28;20502;-76
2022/05/01 07:25:43;;;;;;;14.80;12.97;;;9.20;99.90;;;;;;5004940;28;20463;-75
2022/05/01 07:28:11;;;;;;;15.87;14.03;;;9.20;99.90;;;;;;4997364;28;20480;-76
2022/05/01 07:30:39;;;;;;;16.57;13.10;;;9.20;99.90;;;;;;4995869;28;20462;-77
2022/05/01 07:33:09;;;;;;;17.10;14.17;;;9.30;99.90;;;;;;5011045;28;20476;-76
2022/05/01 07:35:38;;;;;;;16.50;13.90;;;9.40;99.90;;;;;;5011990;28;20560;-77
2022/05/01 07:38:07;;;;;;;17.10;14.30;;;9.40;99.90;;;;;;5012540;28;20537;-76
2022/05/01 07:40:36;;;;;;;16.70;14.00;;;9.40;99.90;;;;;;5008336;28;20830;-76
2022/05/01 07:43:04;;;;;;;16.23;13.90;;;9.50;99.90;;;;;;4992193;28;20472;-76
2022/05/01 07:45:32;;;;;;;17.03;15.20;;;9.50;99.90;;;;;;4993611;28;20449;-76
2022/05/01 07:48:11;;;;;;;15.67;13.87;;;9.60;99.90;;;;;;4993609;28;20447;-76
2022/05/01 07:50:40;;;;;;;16.13;13.00;;;9.70;99.90;;;;;;5000939;28;20543;-76
2022/05/01 07:53:08;;;;;;;16.00;14.10;;;9.70;99.90;;;;;;5011204;28;20467;-76
2022/05/01 07:55:37;;;;;;;16.07;14.20;;;9.70;99.90;;;;;;4991934;28;20441;-76
2022/05/01 07:58:05;;;;;;;15.97;13.33;;;9.80;99.90;;;;;;4993681;28;20448;-76
2022/05/01 08:00:34;;;;;;;14.20;11.97;;;9.80;99.90;;;;;;4993357;28;20456;-76
2022/05/01 08:05:49;;;;;;;16.40;13.70;;;9.90;99.90;;;;;;4991809;28;21006;-76
2022/05/01 08:08:17;;;;;;;17.37;12.20;;;10.00;99.90;;;;;;4991626;28;20445;-76
2022/05/01 08:10:45;;;;;;;14.47;11.37;;;10.10;99.90;;;;;;4991941;28;20559;-77
2022/05/01 08:13:13;;;;;;;14.40;12.57;;;10.10;99.90;;;;;;4992468;28;20533;-76
2022/05/01 08:15:41;;;;;;;14.70;11.80;;;10.20;99.90;;;;;;5011772;28;20543;-76
2022/05/01 08:21:07;;;;;;;14.23;12.27;;;10.30;99.90;;;;;;4991568;28;20953;-76
2022/05/01 08:23:38;;;;;;;15.20;13.00;;;10.40;99.90;;;;;;4991596;28;20443;-76
2022/05/01 08:26:10;;;;;;;13.77;9.90;;;10.50;99.90;;;;;;4991710;28;20458;-76
2022/05/01 08:28:40;;;;;;;12.97;11.07;;;10.50;99.90;;;;;;5007708;28;20530;-77
2022/05/01 08:31:08;;;;;;;14.60;12.27;;;10.60;99.90;;;;;;4999445;28;20802;-76
2022/05/01 08:36:31;;;;;;;15.57;11.20;;;10.70;99.90;;;;;;5008974;28;20463;-77
2022/05/01 08:39:02;;;;;;;12.50;10.87;;;10.80;99.90;;;;;;4991813;28;20517;-76
2022/05/01 08:41:32;;;;;;;13.70;9.20;;;10.90;99.90;;;;;;4992640;28;20445;-76
2022/05/01 08:44:02;;;;;;;12.00;10.47;;;10.90;99.90;;;;;;4991853;28;20973;-76
2022/05/01 08:46:46;;;;;;;12.00;8.30;;;11.00;99.90;;;;;;4991118;28;20965;-76
2022/05/01 08:49:17;;;;;;;12.10;9.77;;;11.10;99.90;;;;;;4991065;28;21024;-76
2022/05/01 08:51:47;;;;;;;12.60;10.10;;;11.10;99.90;;;;;;4998527;28;20456;-77
2022/05/01 08:54:16;;;;;;;12.53;9.23;;;11.20;99.90;;;;;;4990974;28;21015;-76
2022/05/01 08:56:46;;;;;;;12.37;9.63;;;11.30;99.90;;;;;;5007382;28;20456;-76
2022/05/01 08:59:16;;;;;;;12.80;10.33;;;11.40;99.90;;;;;;4992715;28;20471;-76
2022/05/01 09:01:46;;;;;;;13.17;9.90;;;11.40;99.90;;;;;;4994857;28;20483;-76
2022/05/01 09:04:15;;;;;;;11.43;8.30;;;11.50;99.90;;;;;;5010933;28;20539;-76
2022/05/01 09:06:46;;;;;;;10.17;8.37;;;11.60;99.80;;;;;;5011049;28;20485;-77
2022/05/01 09:09:19;;;;;;;12.60;9.17;;;11.70;99.80;;;;;;5007421;28;20500;-76
2022/05/01 09:14:35;;;;;;;12.60;10.50;;;11.90;99.60;;;;;;5001360;28;20448;-76
2022/05/01 09:17:14;;;;;;;11.10;7.67;;;12.00;99.50;;;;;;5011005;28;20501;-77
2022/05/01 09:19:44;;;;;;;9.40;6.73;;;12.10;99.40;;;;;;4973218;28;20469;-77
2022/05/01 09:29:22;;;;;;;13.70;9.40;;;12.40;98.70;;;;;;4972690;28;20468;-77
2022/05/01 09:31:52;;;;;;;11.50;9.20;;;12.50;98.70;;;;;;4972667;28;20456;-77
2022/05/01 09:34:23;;;;;;;12.57;10.10;;;12.60;98.70;;;;;;4973431;28;20584;-78
2022/05/01 09:36:54;;;;;;;12.40;9.73;;;12.80;98.80;;;;;;4993723;28;20961;-77
2022/05/01 09:39:24;;;;;;;12.77;8.83;;;13.00;98.80;;;;;;5002644;28;20473;-77
2022/05/01 09:41:54;;;;;;;10.90;8.87;;;13.20;98.50;;;;;;4993470;28;20883;-77
2022/05/01 09:44:58;;;;;;;12.43;10.37;;;13.30;98.40;;;;;;4991845;28;20460;-77
2022/05/01 09:51:15;;;;;;;13.37;8.47;;;13.60;98.00;;;;;;4993442;28;20452;-77
2022/05/01 09:53:43;;;;;;;11.60;9.47;;;13.70;97.70;;;;;;4992187;28;20555;-77
2022/05/01 09:56:14;;;;;;;11.10;8.40;;;13.80;97.60;;;;;;5012906;28;20501;-77
2022/05/01 09:58:43;;;;;;;10.67;9.57;;;13.90;97.40;;;;;;4995823;28;20980;-78
2022/05/01 10:01:13;;;;;;;12.23;9.30;;;14.00;97.20;;;;;;5011613;28;20538;-77
2022/05/01 10:04:26;;;;;;;11.27;8.30;;;14.00;96.90;;;;;;5010119;28;20452;-77
2022/05/01 10:07:43;;;;;;;11.03;9.10;;;14.10;96.80;;;;;;4972418;28;20536;-77
2022/05/01 10:10:13;;;;;;;12.60;9.23;;;14.20;96.90;;;;;;4987114;28;20480;-77
2022/05/01 10:12:46;;;;;;;10.40;8.13;;;14.40;96.80;;;;;;4990774;28;20552;-77
2022/05/01 10:15:20;;;;;;;11.60;7.70;;;14.50;96.40;;;;;;5010282;28;20459;-77
2022/05/01 10:17:49;;;;;;;14.23;10.20;;;14.60;96.20;;;;;;5010590;28;20447;-77
2022/05/01 10:20:23;;;;;;;12.00;8.13;;;14.60;96.50;;;;;;5012325;28;20487;-79
2022/05/01 10:22:51;;;;;;;10.83;7.70;;;14.70;96.20;;;;;;5010296;28;20505;-77
2022/05/01 10:25:23;;;;;;;10.40;7.00;;;14.80;96.20;;;;;;5010577;28;20504;-77
2022/05/01 10:27:58;;;;;;;11.87;7.87;;;14.80;95.60;;;;;;5010773;28;20407;-77
2022/05/01 10:33:43;;;;;;;11.03;8.03;;;15.10;95.30;;;;;;4989420;28;20480;-77
2022/05/01 10:36:31;;;;;;;9.93;7.00;;;15.30;94.50;;;;;;4982314;28;20461;-77
2022/05/01 10:39:10;;;;;;;10.10;7.83;;;15.30;94.80;;;;;;4996800;28;20468;-77
2022/05/01 10:41:44;;;;;;;10.50;7.50;;;15.40;94.80;;;;;;4992360;28;20417;-77
2022/05/01 10:44:28;;;;;;;10.40;8.00;;;15.40;94.60;;;;;;4991960;28;20761;-76
2022/05/01 10:47:04;;;;;;;9.70;7.17;;;15.30;94.10;;;;;;4989479;28;20543;-76
2022/05/01 10:49:55;;;;;;;10.40;7.00;;;15.20;94.00;;;;;;4990939;28;20467;-76
2022/05/01 10:52:39;;;;;;;8.90;6.17;;;15.10;93.80;;;;;;4989397;28;20463;-76
2022/05/01 10:59:43;;;;;;;9.63;7.30;;;15.00;93.50;;;;;;4990406;28;20465;-76
2022/05/01 11:02:38;;;;;;;9.90;7.13;;;14.90;93.30;;;;;;5007418;28;20903;-76
2022/05/01 11:05:09;;;;;;;9.20;6.80;;;14.80;93.10;;;;;;4996365;28;20493;-76
2022/05/01 11:10:42;;;;;;;8.83;6.40;;;14.70;93.00;;;;;;4993363;28;20457;-76
2022/05/01 11:13:31;;;;;;;8.93;6.60;;;14.70;92.90;;;;;;4992367;28;20474;-76
2022/05/01 11:16:01;;;;;;;9.37;5.70;;;14.70;92.70;;;;;;4993954;28;20417;-76
2022/05/01 11:19:01;;;;;;;9.97;5.83;;;14.70;92.40;;;;;;4992040;28;21020;-76
2022/05/01 11:21:48;;;;;;;9.23;5.50;;;14.70;92.40;;;;;;4998720;28;20830;-76
2022/05/01 11:24:16;;;;;;;7.90;4.83;;;14.70;92.20;;;;;;4992247;28;20467;-76
2022/05/01 11:27:15;;;;;;;7.67;5.03;;;14.80;92.10;;;;;;4993648;28;20441;-76
2022/05/01 11:30:22;;;;;;;8.70;5.37;;;14.80;91.20;;;;;;4991084;28;20511;-76
2022/05/01 11:32:59;;;;;;;8.10;5.80;;;14.80;91.20;;;;;;4991923;28;20949;-76
2022/05/01 11:35:55;;;;;;;9.00;5.53;;;14.70;91.20;;;;;;4992143;28;20486;-76
2022/05/01 11:38:25;;;;;;;10.37;6.13;;;14.80;91.10;;;;;;4988788;28;20504;-76
2022/05/01 11:40:56;;;;;;;7.97;5.90;;;14.80;91.00;;;;;;4990563;28;20455;-75
2022/05/01 11:43:28;;;;;;;8.50;5.80;;;14.80;90.90;;;;;;5008623;28;20451;-76
2022/05/01 11:45:57;;;;;;;9.23;6.17;;;14.80;90.90;;;;;;4972498;28;20458;-76
2022/05/01 11:48:34;;;;;;;9.57;6.60;;;14.80;90.80;;;;;;4982849;28;20436;-76
2022/05/01 11:51:04;;;;;;;8.57;6.23;;;14.80;90.70;;;;;;4994014;28;20512;-76
2022/05/01 11:53:41;;;;;;;9.63;6.57;;;14.80;90.70;;;;;;5011272;28;20446;-76
2022/05/01 12:04:41;;;;;;;9.50;6.67;;;14.90;90.30;;;;;;5012606;28;20453;-77
2022/05/01 12:07:11;;;;;;;138.80;10.83;;;14.80;90.00;;;;;;5011655;28;20415;-76
2022/05/01 12:09:41;;;;;;;10.50;6.30;;;14.80;90.10;;;;;;5011054;28;20447;-75
2022/05/01 12:12:12;;;;;;;8.50;5.33;;;14.80;90.10;;;;;;5010726;28;20876;-75
2022/05/01 12:14:41;;;;;;;8.90;5.70;;;14.80;90.00;;;;;;4997084;28;20475;-75
2022/05/01 12:17:11;;;;;;;8.37;5.80;;;14.80;90.00;;;;;;5012092;28;20967;-75
2022/05/01 12:19:42;;;;;;;10.63;5.83;;;14.80;89.90;;;;;;5010441;28;20790;-75
2022/05/01 12:22:13;;;;;;;8.90;5.63;;;14.80;89.90;;;;;;5007238;28;20457;-75
2022/05/01 12:24:42;;;;;;;9.10;5.60;;;14.80;90.00;;;;;;4991250;28;20479;-76
2022/05/01 12:27:13;;;;;;;9.77;6.30;;;14.80;89.70;;;;;;4993075;28;20468;-76
2022/05/01 12:29:49;;;;;;;10.13;5.90;;;14.90;89.80;;;;;;5012022;28;21003;-75
2022/05/01 12:32:17;;;;;;;10.63;5.77;;;14.90;89.60;;;;;;5010957;28;20478;-78
2022/05/01 12:34:59;;;;;;;9.47;6.00;;;14.90;89.60;;;;;;5000457;28;20530;-76
2022/05/01 12:37:34;;;;;;;9.77;5.53;;;14.90;90.00;;;;;;4999006;28;20460;-76
2022/05/01 12:40:05;;;;;;;8.60;5.90;;;14.90;89.00;;;;;;5009840;28;20479;-76
2022/05/01 12:45:35;;;;;;;8.73;5.27;;;14.80;87.90;;;;;;5011751;28;20444;-76
2022/05/01 12:48:05;;;;;;;8.83;4.73;;;14.80;87.60;;;;;;5011860;28;20420;-76
2022/05/01 12:50:37;;;;;;;8.63;5.57;;;14.80;87.70;;;;;;5009246;28;20443;-76
2022/05/01 12:53:23;;;;;;;8.50;5.47;;;14.80;87.10;;;;;;5010569;28;20513;-76
2022/05/01 12:55:53;;;;;;;8.50;4.73;;;14.80;87.10;;;;;;5010446;28;20984;-76
2022/05/01 12:58:28;;;;;;;8.47;5.07;;;14.80;87.10;;;;;;5010318;28;20931;-76
2022/05/01 13:00:56;;;;;;;9.10;5.10;;;14.80;87.00;;;;;;5026803;28;20997;-76
2022/05/01 13:03:28;;;;;;;8.80;5.07;;;14.80;87.00;;;;;;5010303;28;20830;-76
2022/05/01 13:06:03;;;;;;;8.13;4.93;;;14.80;86.80;;;;;;5009116;28;20467;-76
2022/05/01 13:08:33;;;;;;;8.03;4.90;;;14.80;86.40;;;;;;5008193;28;20464;-76
2022/05/01 13:11:20;;;;;;;9.87;5.53;;;14.80;86.30;;;;;;4990947;28;20814;-76
2022/05/01 13:13:51;;;;;;;8.40;5.17;;;14.80;85.90;;;;;;4997228;28;20458;-76
2022/05/01 13:16:22;;;;;;;10.17;5.07;;;14.80;86.20;;;;;;5011363;28;20419;-76
2022/05/01 13:18:53;;;;;;;9.00;5.00;;;14.80;85.90;;;;;;5010106;28;20451;-76
2022/05/01 13:21:25;;;;;;;10.37;5.40;;;14.80;85.80;;;;;;5010355;28;20542;-76
2022/05/01 13:23:57;;;;;;;9.63;5.57;;;14.80;85.50;;;;;;5011251;28;20523;-76
2022/05/01 13:26:32;;;;;;;11.10;5.37;;;14.80;85.20;;;;;;5011501;28;20430;-76
2022/05/01 13:29:00;;;;;;;7.90;5.07;;;14.80;84.90;;;;;;5009480;28;20474;-77
2022/05/01 13:31:28;;;;;;;8.63;4.93;;;14.80;84.70;;;;;;5009551;28;20855;-76
2022/05/01 13:33:56;;;;;;;11.53;5.93;;;14.80;84.40;;;;;;5010896;28;20956;-76
2022/05/01 13:36:26;;;;;;;8.87;4.93;;;14.80;84.30;;;;;;4993238;28;20498;-76
2022/05/01 13:38:54;;;;;;;8.40;5.33;;;14.80;84.20;;;;;;5006486;28;20480;-76
2022/05/01 13:46:53;;;;;;;9.63;7.00;;;14.80;84.30;;;;;;5012878;28;20464;-76
2022/05/01 13:49:22;;;;;;;8.93;4.80;;;14.80;84.30;;;;;;5009530;28;20872;-76
2022/05/01 13:51:51;;;;;;;9.43;5.70;;;14.80;84.20;;;;;;5007087;28;20455;-76
2022/05/01 13:54:20;;;;;;;8.40;5.60;;;14.90;84.30;;;;;;5010790;28;20465;-76
2022/05/01 13:56:48;;;;;;;7.83;5.17;;;14.90;84.30;;;;;;5009562;28;20452;-76
2022/05/01 13:59:17;;;;;;;8.07;5.10;;;14.90;84.40;;;;;;4990498;28;20487;-76
2022/05/01 14:01:45;;;;;;;9.30;5.47;;;15.00;84.40;;;;;;4989981;28;20452;-76
2022/05/01 14:04:14;;;;;;;9.10;5.50;;;15.00;84.30;;;;;;5008108;28;20436;-76
2022/05/01 14:06:45;;;;;;;8.50;5.10;;;15.00;84.20;;;;;;5005830;28;20557;-76